createdAt,value
2023-02-21T00:02:42.744Z,23.88
2023-02-21T00:05:30.744Z,24.17
2023-02-21T00:08:17.536Z,23.20
2023-02-21T00:11:05.461Z,24.27
2023-02-21T00:13:55.946Z,23.63
2023-02-21T00:16:43.413Z,24.13
2023-02-21T00:19:30.361Z,27.83
2023-02-21T00:22:16.617Z,25.25
2023-02-21T00:25:04.123Z,23.60
2023-02-21T00:27:50.653Z,24.38
2023-02-21T00:30:37.240Z,26.20
2023-02-21T00:33:24.161Z,24.60
2023-02-21T00:36:10.373Z,27.30
2023-02-21T00:38:57.588Z,28.63
2023-02-21T00:41:44.546Z,27.38
2023-02-21T00:44:31.601Z,26.77
2023-02-21T00:47:17.998Z,30.23
2023-02-21T00:50:04.698Z,27.30
2023-02-21T00:52:52.672Z,28.20
2023-02-21T00:58:29.836Z,28.38
2023-02-21T01:01:17.639Z,29.92
2023-02-21T01:04:06.452Z,27.65
2023-02-21T01:06:52.682Z,27.35
2023-02-21T01:09:39.078Z,27.77
2023-02-21T01:12:31.546Z,29.35
2023-02-21T01:15:18.824Z,26.17
2023-02-21T01:18:09.161Z,27.35
2023-02-21T01:20:55.703Z,30.13
2023-02-21T01:23:44.805Z,26.73
2023-02-21T01:26:31.505Z,29.40
2023-02-21T01:29:17.850Z,27.20
2023-02-21T01:32:04.281Z,33.05
2023-02-21T01:34:50.794Z,29.60
2023-02-21T01:40:25.775Z,27.35
2023-02-21T01:43:13.170Z,27.13
2023-02-21T01:46:07.055Z,34.08
2023-02-21T01:48:55.242Z,29.58
2023-02-21T01:51:47.326Z,31.27
2023-02-21T01:54:36.285Z,28.73
2023-02-21T01:57:24.627Z,28.92
2023-02-21T02:00:17.394Z,29.33
2023-02-21T02:03:22.658Z,33.00
2023-02-21T02:06:14.985Z,30.45
2023-02-21T02:09:04.360Z,31.02
2023-02-21T02:12:20.304Z,29.23
2023-02-21T02:15:00.448Z,31.58
2023-02-21T02:17:44.562Z,31.67
2023-02-21T02:20:23.892Z,32.20
2023-02-21T02:23:11.807Z,31.90
2023-02-21T02:26:12.054Z,32.85
2023-02-21T02:28:39.742Z,30.63
2023-02-21T02:31:21.031Z,32.03
2023-02-21T02:34:16.757Z,32.78
2023-02-21T02:36:53.627Z,31.98
2023-02-21T02:39:46.435Z,33.88
2023-02-21T02:42:45.809Z,32.70
2023-02-21T02:45:30.386Z,33.08
2023-02-21T02:48:10.571Z,34.88
2023-02-21T02:50:40.275Z,36.17
2023-02-21T02:53:09.275Z,36.60
2023-02-21T02:55:47.921Z,35.65
2023-02-21T02:58:17.457Z,35.63
2023-02-21T03:00:57.265Z,35.65
2023-02-21T03:04:02.809Z,35.35
2023-02-21T03:06:45.823Z,34.33
2023-02-21T03:09:39.281Z,35.90
2023-02-21T03:12:43.204Z,35.78
2023-02-21T03:15:36.417Z,36.05
2023-02-21T03:18:12.322Z,36.92
2023-02-21T03:20:42.895Z,36.67
2023-02-21T03:23:14.476Z,35.35
2023-02-21T03:25:44.995Z,37.25
2023-02-21T03:28:13.789Z,35.33
2023-02-21T03:30:46.304Z,37.50
2023-02-21T03:33:15.713Z,34.00
2023-02-21T03:35:43.722Z,36.92
2023-02-21T03:38:12.126Z,33.08
2023-02-21T03:40:40.277Z,36.05
2023-02-21T03:43:08.173Z,34.15
2023-02-21T03:45:45.574Z,36.58
2023-02-21T03:48:26.087Z,32.50
2023-02-21T03:50:59.625Z,33.80
2023-02-21T03:53:31.994Z,37.10
2023-02-21T03:56:01.224Z,33.05
2023-02-21T03:58:38.461Z,36.58
2023-02-21T04:01:06.964Z,33.03
2023-02-21T04:03:35.046Z,31.80
2023-02-21T04:06:04.988Z,31.52
2023-02-21T04:08:33.902Z,33.08
2023-02-21T04:11:02.051Z,30.95
2023-02-21T04:13:33.268Z,31.23
2023-02-21T04:16:02.439Z,33.42
2023-02-21T04:18:30.899Z,36.05
2023-02-21T04:21:01.507Z,34.70
2023-02-21T04:23:29.859Z,34.42
2023-02-21T04:25:58.682Z,33.78
2023-02-21T04:28:33.572Z,30.73
2023-02-21T04:31:02.315Z,32.65
2023-02-21T04:33:30.510Z,32.35
2023-02-21T04:36:00.412Z,37.28
2023-02-21T04:38:40.942Z,35.47
2023-02-21T04:41:08.812Z,32.85
2023-02-21T04:43:37.734Z,35.03
2023-02-21T04:46:07.072Z,33.00
2023-02-21T04:48:35.184Z,30.75
2023-02-21T04:51:15.201Z,35.75
2023-02-21T04:53:44.770Z,30.95
2023-02-21T04:56:13.029Z,31.63
2023-02-21T04:58:45.425Z,31.90
2023-02-21T05:01:16.422Z,31.27
2023-02-21T05:03:45.302Z,29.85
2023-02-21T05:06:25.679Z,29.92
2023-02-21T05:08:55.665Z,32.78
2023-02-21T05:11:24.514Z,29.83
2023-02-21T05:13:52.938Z,31.92
2023-02-21T05:16:21.588Z,29.05
2023-02-21T05:18:49.482Z,31.48
2023-02-21T05:21:19.129Z,30.02
2023-02-21T05:23:56.366Z,32.20
2023-02-21T05:26:27.739Z,31.70
2023-02-21T05:28:55.831Z,32.63
2023-02-21T05:31:23.955Z,33.08
2023-02-21T05:33:52.268Z,32.38
2023-02-21T05:36:21.182Z,33.03
2023-02-21T05:38:54.179Z,35.03
2023-02-21T05:41:22.747Z,33.78
2023-02-21T05:43:51.339Z,32.05
2023-02-21T05:46:27.307Z,31.77
2023-02-21T05:48:56.802Z,33.80
2023-02-21T05:51:25.656Z,31.33
2023-02-21T05:53:54.343Z,34.80
2023-02-21T05:56:22.975Z,32.58
2023-02-21T05:58:54.062Z,33.25
2023-02-21T06:01:21.991Z,33.28
2023-02-21T06:03:49.925Z,34.65
2023-02-21T06:06:20.733Z,36.50
2023-02-21T06:08:49.740Z,35.50
2023-02-21T06:11:24.891Z,40.47
2023-02-21T06:13:54.298Z,39.30
2023-02-21T06:16:24.590Z,35.95
2023-02-21T06:18:55.797Z,33.78
2023-02-21T06:21:24.398Z,36.35
2023-02-21T06:23:52.236Z,38.85
2023-02-21T06:26:21.336Z,39.30
2023-02-21T06:28:50.151Z,35.13
2023-02-21T06:31:20.504Z,41.10
2023-02-21T06:33:49.520Z,38.08
2023-02-21T06:36:20.721Z,40.03
2023-02-21T06:38:51.442Z,38.75
2023-02-21T06:41:21.408Z,37.08
2023-02-21T06:43:49.699Z,34.83
2023-02-21T06:46:20.983Z,34.03
2023-02-21T06:48:49.337Z,33.08
2023-02-21T06:51:17.944Z,36.03
2023-02-21T06:53:50.260Z,35.13
2023-02-21T06:56:18.139Z,39.92
2023-02-21T06:58:45.763Z,33.65
2023-02-21T07:01:14.230Z,35.03
2023-02-21T07:03:47.660Z,36.13
2023-02-21T07:06:16.361Z,35.72
2023-02-21T07:08:44.266Z,35.35
2023-02-21T07:11:14.381Z,34.05
2023-02-21T07:13:54.346Z,34.60
2023-02-21T07:16:23.241Z,35.95
2023-02-21T07:18:51.074Z,34.38
2023-02-21T07:21:20.822Z,38.70
2023-02-21T07:23:49.758Z,32.05
2023-02-21T07:26:17.562Z,31.85
2023-02-21T07:28:48.740Z,39.35
2023-02-21T07:31:19.476Z,38.63
2023-02-21T07:33:48.445Z,35.15
2023-02-21T07:36:16.296Z,31.60
2023-02-21T07:38:44.011Z,30.88
2023-02-21T07:41:13.184Z,34.08
2023-02-21T07:43:40.946Z,31.33
2023-02-21T07:46:12.744Z,35.00
2023-02-21T07:48:43.097Z,32.55
2023-02-21T07:51:11.459Z,34.25
2023-02-21T07:53:41.148Z,35.13
2023-02-21T07:56:09.088Z,35.47
2023-02-21T07:58:40.371Z,33.58
2023-02-21T08:01:08.588Z,34.60
2023-02-21T08:03:38.057Z,31.30
2023-02-21T08:06:06.069Z,35.67
2023-02-21T08:08:34.123Z,31.70
2023-02-21T08:11:03.684Z,33.63
2023-02-21T08:13:31.951Z,28.35
2023-02-21T08:16:00.211Z,39.50
2023-02-21T08:18:29.496Z,32.33
2023-02-21T08:20:57.764Z,33.63
2023-02-21T08:23:25.795Z,33.22
2023-02-21T08:25:53.848Z,32.38
2023-02-21T08:28:21.855Z,30.17
2023-02-21T08:30:49.730Z,32.20
2023-02-21T08:33:17.869Z,31.42
2023-02-21T08:35:45.859Z,34.50
2023-02-21T08:38:14.008Z,30.65
2023-02-21T08:40:42.011Z,29.70
2023-02-21T08:43:09.715Z,34.45
2023-02-21T08:45:37.820Z,32.80
2023-02-21T08:48:05.821Z,33.05
2023-02-21T08:50:33.851Z,25.95
2023-02-21T08:53:01.672Z,29.10
2023-02-21T08:55:29.545Z,31.33
2023-02-21T08:57:57.660Z,27.45
2023-02-21T09:00:30.067Z,33.55
2023-02-21T09:03:00.029Z,36.20
2023-02-21T09:05:30.414Z,27.95
2023-02-21T09:08:01.672Z,32.10
2023-02-21T09:10:34.194Z,33.35
2023-02-21T09:13:03.743Z,31.88
2023-02-21T09:15:33.430Z,30.45
2023-02-21T09:18:01.681Z,35.55
2023-02-21T09:20:29.645Z,36.95
2023-02-21T09:22:57.584Z,39.40
2023-02-21T09:25:25.999Z,31.33
2023-02-21T09:27:54.939Z,24.92
2023-02-21T09:30:27.017Z,37.83
2023-02-21T09:32:56.311Z,33.15
2023-02-21T09:35:25.015Z,33.97
2023-02-21T09:37:52.975Z,25.10
2023-02-21T09:40:40.092Z,28.30
2023-02-21T09:43:19.372Z,31.53
2023-02-21T09:45:50.293Z,28.48
2023-02-21T09:48:20.723Z,37.72
2023-02-21T09:50:52.258Z,30.00
2023-02-21T09:53:27.323Z,37.38
2023-02-21T09:56:08.266Z,35.28
2023-02-21T09:58:42.733Z,31.63
2023-02-21T10:01:20.598Z,32.25
2023-02-21T10:04:01.851Z,37.17
2023-02-21T10:06:44.013Z,30.70
2023-02-21T10:09:45.992Z,38.80
2023-02-21T10:12:23.032Z,37.15
2023-02-21T10:15:15.621Z,38.55
2023-02-21T10:17:54.346Z,39.92
2023-02-21T10:20:33.241Z,41.47
2023-02-21T10:23:03.838Z,31.40
2023-02-21T10:25:34.161Z,36.58
2023-02-21T10:28:01.952Z,31.88
2023-02-21T10:30:35.777Z,35.05
2023-02-21T10:33:09.038Z,30.67
2023-02-21T10:35:38.731Z,28.55
2023-02-21T10:38:21.159Z,27.80
2023-02-21T10:40:55.919Z,28.30
2023-02-21T10:43:31.884Z,32.42
2023-02-21T10:46:15.803Z,26.45
2023-02-21T10:48:47.755Z,26.48
2023-02-21T10:51:30.875Z,21.70
2023-02-21T10:54:35.410Z,22.67
2023-02-21T10:57:07.965Z,25.02
2023-02-21T10:59:41.335Z,18.70
2023-02-21T11:02:31.247Z,21.92
2023-02-21T11:05:21.309Z,20.98
2023-02-21T11:08:06.412Z,19.63
2023-02-21T11:10:41.746Z,19.65
2023-02-21T11:13:17.594Z,19.48
2023-02-21T11:15:48.350Z,17.27
2023-02-21T11:18:26.183Z,15.13
2023-02-21T11:20:55.437Z,16.10
2023-02-21T11:23:23.340Z,21.08
2023-02-21T11:26:12.778Z,29.63
2023-02-21T11:28:45.631Z,24.65
2023-02-21T11:31:18.588Z,18.08
2023-02-21T11:34:01.548Z,20.35
2023-02-21T11:36:32.824Z,20.73
2023-02-21T11:39:23.904Z,20.95
2023-02-21T11:41:53.779Z,21.30
2023-02-21T11:44:43.303Z,20.05
2023-02-21T11:47:34.855Z,27.65
2023-02-21T11:50:16.752Z,25.88
2023-02-21T11:53:01.335Z,31.77
2023-02-21T11:55:29.600Z,28.27
2023-02-21T11:58:15.936Z,29.13
2023-02-21T12:01:02.058Z,27.98
2023-02-21T12:03:29.994Z,22.27
2023-02-21T12:06:02.163Z,25.65
2023-02-21T12:09:03.271Z,21.52
2023-02-21T12:12:21.828Z,20.67
2023-02-21T12:15:09.422Z,31.67
2023-02-21T12:17:59.348Z,28.02
2023-02-21T12:20:53.188Z,28.73
2023-02-21T12:23:54.790Z,28.27
2023-02-21T12:26:49.302Z,27.42
2023-02-21T12:29:35.965Z,34.22
2023-02-21T12:32:13.282Z,34.33
2023-02-21T12:34:56.629Z,27.92
2023-02-21T12:38:04.707Z,27.17
2023-02-21T12:40:57.759Z,26.88
2023-02-21T12:43:43.945Z,29.58
2023-02-21T12:46:18.202Z,26.33
2023-02-21T12:49:13.396Z,30.35
2023-02-21T12:52:07.181Z,28.10
2023-02-21T12:55:07.484Z,27.67
2023-02-21T12:58:00.413Z,28.40
2023-02-21T13:01:16.965Z,22.60
2023-02-21T13:03:57.318Z,25.73
2023-02-21T13:06:31.962Z,20.75
2023-02-21T13:09:33.845Z,21.13
2023-02-21T13:12:10.175Z,23.77
2023-02-21T13:15:16.412Z,18.83
2023-02-21T13:17:52.344Z,24.40
2023-02-21T13:20:26.105Z,21.73
2023-02-21T13:23:02.260Z,19.45
2023-02-21T13:28:24.245Z,19.42
2023-02-21T13:30:58.581Z,17.67
2023-02-21T13:33:44.909Z,17.90
2023-02-21T13:36:26.355Z,17.60
2023-02-21T13:38:58.763Z,17.30
2023-02-21T13:41:30.791Z,18.50
2023-02-21T13:43:59.993Z,21.75
2023-02-21T13:46:30.962Z,19.92
2023-02-21T13:49:36.697Z,18.35
2023-02-21T13:52:26.651Z,18.38
2023-02-21T13:55:15.702Z,15.20
2023-02-21T13:57:43.553Z,19.42
2023-02-21T14:00:29.725Z,15.18
2023-02-21T14:03:10.086Z,16.27
2023-02-21T14:05:47.266Z,15.07
2023-02-21T14:08:41.733Z,14.93
2023-02-21T14:11:15.515Z,16.50
2023-02-21T14:13:46.344Z,13.88
2023-02-21T14:16:15.437Z,15.77
2023-02-21T14:18:49.689Z,11.95
2023-02-21T14:21:27.247Z,15.35
2023-02-21T14:24:01.173Z,12.05
2023-02-21T14:27:05.360Z,11.65
2023-02-21T14:29:42.418Z,19.00
2023-02-21T14:37:31.518Z,16.90
2023-02-21T14:40:19.744Z,12.27
2023-02-21T14:43:14.663Z,12.05
2023-02-21T14:46:01.737Z,12.20
2023-02-21T14:48:51.591Z,11.93
2023-02-21T14:51:37.702Z,14.60
2023-02-21T14:54:42.311Z,12.88
2023-02-21T14:57:30.036Z,18.10
2023-02-21T15:00:22.892Z,17.38
2023-02-21T15:03:06.772Z,15.07
2023-02-21T15:05:50.260Z,14.85
2023-02-21T15:08:26.069Z,16.60
2023-02-21T15:11:05.769Z,14.85
2023-02-21T15:13:35.926Z,15.75
2023-02-21T15:16:13.659Z,14.13
2023-02-21T15:19:00.411Z,12.80
2023-02-21T15:21:28.730Z,13.27
2023-02-21T15:24:23.274Z,10.70
2023-02-21T15:27:11.019Z,14.02
2023-02-21T15:29:43.289Z,15.13
2023-02-21T15:32:13.017Z,11.25
2023-02-21T15:34:46.486Z,12.73
2023-02-21T15:37:43.528Z,18.35
2023-02-21T15:40:20.698Z,12.88
2023-02-21T15:42:51.166Z,16.58
2023-02-21T15:45:34.455Z,10.75
2023-02-21T15:48:04.852Z,10.77
2023-02-21T15:50:47.785Z,11.45
2023-02-21T15:53:20.839Z,9.45
2023-02-21T15:55:53.315Z,12.75
2023-02-21T15:58:27.196Z,13.05
2023-02-21T16:01:14.938Z,10.13
2023-02-21T16:03:52.950Z,14.80
2023-02-21T16:06:28.584Z,11.38
2023-02-21T16:09:07.806Z,13.60
2023-02-21T16:12:00.867Z,11.82
2023-02-21T16:14:34.615Z,12.38
2023-02-21T16:17:47.957Z,12.38
2023-02-21T16:20:26.999Z,12.23
2023-02-21T16:23:20.373Z,15.90
2023-02-21T16:26:10.298Z,14.82
2023-02-21T16:28:40.226Z,16.60
2023-02-21T16:31:25.718Z,10.63
2023-02-21T16:33:58.159Z,13.73
2023-02-21T16:36:30.171Z,13.82
2023-02-21T16:38:59.102Z,12.63
2023-02-21T16:41:28.003Z,13.40
2023-02-21T16:43:56.075Z,14.10
2023-02-21T16:46:30.876Z,12.55
2023-02-21T16:49:00.122Z,16.40
2023-02-21T16:51:35.973Z,16.73
2023-02-21T16:54:10.118Z,17.92
2023-02-21T16:56:40.370Z,16.25
2023-02-21T16:59:15.970Z,13.75
2023-02-21T17:01:47.430Z,15.68
2023-02-21T17:04:20.534Z,15.60
2023-02-21T17:06:53.731Z,15.90
2023-02-21T17:09:24.621Z,15.27
2023-02-21T17:11:53.257Z,18.27
2023-02-21T17:14:21.798Z,14.80
2023-02-21T17:16:52.188Z,16.45
2023-02-21T17:19:28.190Z,13.75
2023-02-21T17:24:28.688Z,14.60
2023-02-21T17:26:56.732Z,18.10
2023-02-21T17:29:25.727Z,15.85
2023-02-21T17:31:55.529Z,15.82
2023-02-21T17:34:24.801Z,13.82
2023-02-21T17:36:57.130Z,12.55
2023-02-21T17:39:24.835Z,12.70
2023-02-21T17:41:53.516Z,13.10
2023-02-21T17:44:22.418Z,14.50
2023-02-21T17:46:57.022Z,15.45
2023-02-21T17:49:28.314Z,16.60
2023-02-21T17:51:57.706Z,16.52
2023-02-21T17:54:29.068Z,13.90
2023-02-21T17:56:57.029Z,14.52
2023-02-21T17:59:25.815Z,16.05
2023-02-21T18:01:55.638Z,15.30
2023-02-21T18:04:25.382Z,20.65
2023-02-21T18:06:55.018Z,14.75
2023-02-21T18:09:24.548Z,17.90
2023-02-21T18:11:55.191Z,18.70
2023-02-21T18:14:26.720Z,13.73
2023-02-21T18:16:56.660Z,14.52
2023-02-21T18:19:26.372Z,15.35
2023-02-21T18:21:54.364Z,13.63
2023-02-21T18:24:26.883Z,14.50
2023-02-21T18:26:55.593Z,14.77
2023-02-21T18:29:23.655Z,15.90
2023-02-21T18:31:54.879Z,13.13
2023-02-21T18:34:24.316Z,13.77
2023-02-21T18:36:54.276Z,14.00
2023-02-21T18:39:24.000Z,14.38
2023-02-21T18:41:51.736Z,14.13
2023-02-21T18:44:21.032Z,16.23
2023-02-21T18:46:57.147Z,18.13
2023-02-21T18:49:31.325Z,22.52
2023-02-21T18:52:01.573Z,24.52
2023-02-21T18:54:30.326Z,26.10
2023-02-21T18:56:59.265Z,27.13
2023-02-21T18:59:28.740Z,19.02
2023-02-21T19:01:57.360Z,24.35
2023-02-21T19:04:26.134Z,21.58
2023-02-21T19:06:53.952Z,21.50
2023-02-21T19:09:23.211Z,23.75
2023-02-21T19:11:51.972Z,26.52
2023-02-21T19:14:19.760Z,28.35
2023-02-21T19:16:47.623Z,23.42
2023-02-21T19:19:15.434Z,21.33
2023-02-21T19:21:44.307Z,19.38
2023-02-21T19:24:14.615Z,20.40
2023-02-21T19:26:45.055Z,18.25
2023-02-21T19:29:13.108Z,19.13
2023-02-21T19:31:41.557Z,16.92
2023-02-21T19:34:10.667Z,16.98
2023-02-21T19:36:39.202Z,13.77
2023-02-21T19:39:10.130Z,15.88
2023-02-21T19:41:38.152Z,18.60
2023-02-21T19:44:08.817Z,20.45
2023-02-21T19:46:36.739Z,14.18
2023-02-21T19:49:17.964Z,15.25
2023-02-21T19:51:48.366Z,16.40
2023-02-21T19:54:18.718Z,15.65
2023-02-21T19:56:46.968Z,17.10
2023-02-21T19:59:14.987Z,14.93
2023-02-21T20:01:45.123Z,17.52
2023-02-21T20:04:13.322Z,13.88
2023-02-21T20:06:41.398Z,16.90
2023-02-21T20:09:10.764Z,14.95
2023-02-21T20:11:40.503Z,17.63
2023-02-21T20:14:11.642Z,16.15
2023-02-21T20:16:41.600Z,23.17
2023-02-21T20:19:10.860Z,13.25
2023-02-21T20:21:39.570Z,16.13
2023-02-21T20:24:10.391Z,14.23
2023-02-21T20:26:39.043Z,15.15
2023-02-21T20:29:07.254Z,16.02
2023-02-21T20:31:37.553Z,15.80
2023-02-21T20:34:09.486Z,16.08
2023-02-21T20:36:40.969Z,15.40
2023-02-21T20:39:20.583Z,14.40
2023-02-21T20:44:39.036Z,16.23
2023-02-21T20:47:09.953Z,13.68
2023-02-21T20:49:46.941Z,13.45
2023-02-21T20:52:17.477Z,14.45
2023-02-21T20:54:47.696Z,14.65
2023-02-21T20:57:17.740Z,13.88
2023-02-21T20:59:46.644Z,13.05
2023-02-21T21:02:15.249Z,13.40
2023-02-21T21:04:44.438Z,13.57
2023-02-21T21:07:19.813Z,13.63
2023-02-21T21:09:49.967Z,14.00
2023-02-21T21:12:21.431Z,14.38
2023-02-21T21:14:53.276Z,15.98
2023-02-21T21:17:22.115Z,13.32
2023-02-21T21:19:50.460Z,15.45
2023-02-21T21:22:21.600Z,12.32
2023-02-21T21:24:52.508Z,13.50
2023-02-21T21:27:21.878Z,13.60
2023-02-21T21:29:50.203Z,13.07
2023-02-21T21:32:21.942Z,12.48
2023-02-21T21:34:54.673Z,13.13
2023-02-21T21:37:27.549Z,14.07
2023-02-21T21:39:56.567Z,25.08
2023-02-21T21:42:28.327Z,16.35
2023-02-21T21:44:57.725Z,14.93
2023-02-21T21:47:32.031Z,15.15
2023-02-21T21:50:02.669Z,14.05
2023-02-21T21:52:30.946Z,11.90
2023-02-21T21:54:59.028Z,12.82
2023-02-21T21:57:27.265Z,12.38
2023-02-21T21:59:57.429Z,14.63
2023-02-21T22:02:25.517Z,14.60
2023-02-21T22:04:56.279Z,12.98
2023-02-21T22:07:24.101Z,12.43
2023-02-21T22:09:51.972Z,13.68
2023-02-21T22:12:21.938Z,12.85
2023-02-21T22:14:50.292Z,12.70
2023-02-21T22:17:19.297Z,14.57
2023-02-21T22:19:48.248Z,14.80
2023-02-21T22:22:16.316Z,14.93
2023-02-21T22:24:44.250Z,14.63
2023-02-21T22:27:12.342Z,16.45
2023-02-21T22:29:40.781Z,13.85
2023-02-21T22:32:12.796Z,15.38
2023-02-21T22:34:41.004Z,16.25
2023-02-21T22:37:10.447Z,15.35
2023-02-21T22:39:38.775Z,15.32
2023-02-21T22:42:09.426Z,16.40
2023-02-21T22:44:37.855Z,15.23
2023-02-21T22:47:11.026Z,16.10
2023-02-21T22:49:40.814Z,17.40
2023-02-21T22:52:10.942Z,16.52
2023-02-21T22:54:38.673Z,18.67
2023-02-21T22:57:07.449Z,17.10
2023-02-21T22:59:35.693Z,21.33
2023-02-21T23:02:04.425Z,20.40
2023-02-21T23:04:36.758Z,21.83
2023-02-21T23:07:07.123Z,20.42
2023-02-21T23:09:37.608Z,17.45
2023-02-21T23:12:10.962Z,17.58
2023-02-21T23:14:41.470Z,18.52
2023-02-21T23:17:09.458Z,16.13
2023-02-21T23:19:37.596Z,15.57
2023-02-21T23:22:08.527Z,16.52
2023-02-21T23:24:46.037Z,15.38
2023-02-21T23:27:14.753Z,17.35
2023-02-21T23:29:43.856Z,16.50
2023-02-21T23:34:53.318Z,15.38
2023-02-21T23:37:21.575Z,14.57
2023-02-21T23:39:49.781Z,16.10
2023-02-21T23:42:21.474Z,16.75
2023-02-21T23:44:52.473Z,19.80
2023-02-21T23:47:21.758Z,19.83
2023-02-21T23:49:50.319Z,21.23
2023-02-21T23:52:18.499Z,19.00
2023-02-21T23:54:49.365Z,22.13
2023-02-21T23:57:18.548Z,23.05
2023-02-21T23:59:46.546Z,22.23
